Latest Coastal Weather Observations for McCluer Island

IDD60701

Issued at 12:55 pm CST Saturday 25 October 2014 (issued every 10 minutes, with the page automatically refreshed every 10 minutes)

About coastal observations | Map of coastal stations | Coastal observations for NT | Marine services | Other Formats
Station Details ID: 014274 Name: MCCLUER ISLAND Lat: -11.05 Lon: 132.98 Height: 1.4 m
Data from the previous 72 hours. | See also: Recent months at McCluer Island
Date/Time
CST
Temp

°C
Wind Pressure Rain
since 9am
mm
Weather Cloud Vis
km
Sea
Height
m
Swell
Dir
 
Speed
knots
Gust
knots
hPa Trend Height
m
Period
s
Dir
25/12:30pm 29.2 E 15 18 1013.8 - 0.0 - - - - - - -
25/12:00pm 29.1 E 15 19 1014.1 - 0.0 - - - - - - -
25/11:30am 29.0 E 16 19 1014.4 - 0.0 - - - - - - -
25/11:00am 28.7 E 16 18 1014.6 - 0.0 - - - - - - -
25/10:30am 28.2 E 16 18 1014.9 - 0.0 - - - - - - -
25/10:00am 28.4 E 15 17 1014.9 - 0.0 - - - - - - -
25/09:30am 28.1 E 15 18 1015.0 - 0.0 - - - - - - -
25/09:00am 28.1 ESE 15 18 1015.0 - 0.0 - - - - - - -
25/08:30am 27.5 ESE 15 19 1015.1 - 0.0 - - - - - - -
25/08:00am 27.7 E 13 16 1014.8 - 0.0 - - - - - - -
25/07:30am 27.0 ESE 14 16 1014.4 - 0.0 - - - - - - -
25/07:00am 26.8 ESE 15 17 1013.9 - 0.0 - - - - - - -
25/06:30am 26.4 ESE 14 19 1013.6 - 0.0 - - - - - - -
25/06:00am 26.3 ESE 13 16 1013.2 - 0.0 - - - - - - -
25/05:30am 26.5 E 15 18 1012.9 - 0.0 - - - - - - -
25/05:00am 26.6 E 15 18 1012.5 - 0.0 - - - - - - -
25/04:30am 26.7 E 18 21 1012.2 - 0.0 - - - - - - -
25/04:00am 26.8 E 19 22 1011.7 - 0.0 - - - - - - -
25/03:30am 26.6 E 20 23 1011.5 - 0.0 - - - - - - -
25/03:00am 26.8 E 21 24 1011.8 - 0.0 - - - - - - -
25/02:30am 27.0 E 22 26 1011.9 - 0.0 - - - - - - -
25/02:00am 26.7 E 20 24 1012.2 - 0.0 - - - - - - -
25/01:30am 27.0 E 20 24 1012.9 - 0.0 - - - - - - -
25/01:00am 26.8 E 20 24 1013.0 - 0.0 - - - - - - -
25/12:30am 26.8 ENE 21 25 1013.2 - 0.0 - - - - - - -
25/12:00am 27.2 ENE 20 23 1013.4 - 0.0 - - - - - - -
 
Date/Time
CST
Temp

°C
Wind Pressure Rain
since 9am
mm
Weather Cloud Vis
km
Sea
Height
m
Swell
Dir
 
Speed
knots
Gust
knots
hPa Trend Height
m
Period
s
Dir
24/11:30pm 27.3 ENE 19 22 1013.2 - 0.0 - - - - - - -
24/11:00pm 27.2 ENE 20 22 1013.1 - 0.0 - - - - - - -
24/10:30pm 27.5 NE 18 21 1013.1 - 0.0 - - - - - - -
24/10:00pm 27.3 NE 16 19 1012.5 - 0.0 - - - - - - -
24/09:30pm 27.4 NE 18 21 1012.3 - 0.0 - - - - - - -
24/09:00pm 27.3 NE 19 22 1012.0 - 0.0 - - - - - - -
24/08:30pm 27.5 NE 20 24 1011.7 - 0.0 - - - - - - -
24/08:00pm 27.3 NE 19 23 1011.3 - 0.0 - - - - - - -
24/07:30pm 27.4 NE 21 23 1010.9 - 0.0 - - - - - - -
24/07:00pm 27.5 ENE 21 24 1010.7 - 0.0 - - - - - - -
24/06:30pm 27.3 ENE 22 26 1010.4 - 0.0 - - - - - - -
24/06:00pm 27.6 ENE 20 24 1010.2 - 0.0 - - - - - - -
24/05:30pm 27.6 ENE 21 24 1010.4 - 0.0 - - - - - - -
24/05:00pm 27.7 ENE 20 23 1010.4 - 0.0 - - - - - - -
24/04:30pm 28.0 ENE 19 22 1010.4 - 0.0 - - - - - - -
24/04:00pm 28.1 E 19 22 1010.5 - 0.0 - - - - - - -
24/03:30pm 28.4 E 18 21 1010.5 - 0.0 - - - - - - -
24/03:00pm 28.6 E 18 21 1010.9 - 0.0 - - - - - - -
24/02:30pm 28.9 E 16 21 1011.4 - 0.0 - - - - - - -
24/02:00pm 28.6 E 17 21 1011.5 - 0.0 - - - - - - -
24/01:30pm 29.3 E 17 20 1012.0 - 0.0 - - - - - - -
24/01:00pm 28.7 E 18 21 1012.3 - 0.0 - - - - - - -
24/12:30pm 29.0 E 18 20 1012.8 - 0.0 - - - - - - -
24/12:00pm 28.8 E 17 19 1013.4 - 0.0 - - - - - - -
24/11:30am 28.7 E 17 19 1013.7 - 0.0 - - - - - - -
24/11:00am 28.6 E 16 19 1013.8 - 0.0 - - - - - - -
24/10:30am 28.7 E 16 19 1014.0 - 0.0 - - - - - - -
24/10:00am 28.6 E 14 16 1014.0 - 0.0 - - - - - - -
24/09:30am 28.3 E 14 17 1014.1 - 0.0 - - - - - - -
24/09:00am 27.8 E 14 16 1014.3 - 0.0 - - - - - - -
24/08:30am 27.6 E 11 13 1014.1 - 0.0 - - - - - - -
24/08:00am 27.6 E 13 15 1013.8 - 0.0 - - - - - - -
24/07:30am 27.5 E 13 15 1013.5 - 0.0 - - - - - - -
24/07:00am 27.3 E 13 16 1013.3 - 0.0 - - - - - - -
24/06:30am 26.8 E 14 16 1013.1 - 0.0 - - - - - - -
24/06:00am 27.0 E 14 17 1012.6 - 0.0 - - - - - - -
24/05:30am 26.7 E 15 17 1012.5 - 0.0 - - - - - - -
24/05:00am 27.0 E 16 19 1012.1 - 0.0 - - - - - - -
24/04:30am 26.8 E 17 19 1011.7 - 0.0 - - - - - - -
24/04:00am 27.1 ENE 15 17 1011.5 - 0.0 - - - - - - -
24/03:30am 26.8 ENE 16 19 1010.9 - 0.0 - - - - - - -
24/03:00am 26.9 ENE 16 18 1011.1 - 0.0 - - - - - - -
24/02:30am 27.1 ENE 15 17 1011.7 - 0.0 - - - - - - -
24/02:00am 27.1 ENE 17 19 1012.0 - 0.0 - - - - - - -
24/01:30am 27.2 ENE 16 17 1012.3 - 0.0 - - - - - - -
24/01:00am 27.0 ENE 14 16 1012.6 - 0.0 - - - - - - -
24/12:30am 27.3 E 16 19 1013.2 - 0.0 - - - - - - -
24/12:00am 27.7 ENE 16 19 1013.6 - 0.0 - - - - - - -
 
Date/Time
CST
Temp

°C
Wind Pressure Rain
since 9am
mm
Weather Cloud Vis
km
Sea
Height
m
Swell
Dir
 
Speed
knots
Gust
knots
hPa Trend Height
m
Period
s
Dir
23/11:30pm 27.4 ENE 17 19 1013.7 - 0.0 - - - - - - -
23/11:00pm 27.3 ENE 17 19 1013.6 - 0.0 - - - - - - -
23/10:30pm 27.6 ENE 19 22 1013.3 - 0.0 - - - - - - -
23/10:00pm 27.5 ENE 21 23 1012.9 - 0.0 - - - - - - -
23/09:30pm 27.5 ENE 18 20 1012.5 - 0.0 - - - - - - -
23/09:00pm 27.6 NE 18 21 1012.3 - 0.0 - - - - - - -
23/08:30pm 27.4 NE 17 20 1011.8 - 0.0 - - - - - - -
23/08:00pm 27.7 ENE 18 21 1011.6 - 0.0 - - - - - - -
23/07:30pm 27.8 NE 18 20 1011.3 - 0.0 - - - - - - -
23/07:00pm 27.6 ENE 17 20 1011.0 - 0.0 - - - - - - -
23/06:30pm 27.7 ENE 17 20 1010.8 - 0.0 - - - - - - -
23/06:00pm 27.7 ENE 17 19 1010.4 - 0.0 - - - - - - -
23/05:30pm 27.7 ENE 17 20 1010.1 - 0.0 - - - - - - -
23/05:00pm 27.9 NE 16 18 1009.9 - 0.0 - - - - - - -
23/04:30pm 28.0 ENE 15 17 1010.0 - 0.0 - - - - - - -
23/04:00pm 28.4 ENE 14 16 1010.3 - 0.0 - - - - - - -
23/03:30pm 28.7 E 13 16 1010.6 - 0.0 - - - - - - -
23/03:00pm 28.7 E 14 16 1011.0 - 0.0 - - - - - - -
23/02:30pm 29.2 E 14 16 1011.3 - 0.0 - - - - - - -
23/02:00pm 28.9 E 14 17 1011.5 - 0.0 - - - - - - -
23/01:30pm 29.0 E 14 17 1011.8 - 0.0 - - - - - - -
23/01:00pm 29.3 E 15 18 1012.3 - 0.0 - - - - - - -
23/12:30pm 29.6 E 16 18 1012.7 - 0.0 - - - - - - -
23/12:00pm 29.0 E 16 18 1013.1 - 0.0 - - - - - - -
23/11:30am 28.9 E 16 19 1013.4 - 0.0 - - - - - - -
23/11:00am 29.0 ESE 16 19 1013.7 - 0.0 - - - - - - -
23/10:00am 29.0 ESE 13 16 1014.0 - 0.0 - - - - - - -
23/09:30am 28.6 ESE 12 15 1014.0 - 0.0 - - - - - - -
23/09:00am 28.0 E 11 13 1014.0 - 0.0 - - - - - - -
23/08:30am 27.7 E 12 14 1014.1 - 0.0 - - - - - - -
23/08:00am 27.5 E 12 14 1013.9 - 0.0 - - - - - - -
23/07:30am 27.2 E 13 15 1013.7 - 0.0 - - - - - - -
23/07:00am 26.8 E 13 15 1013.4 - 0.0 - - - - - - -
23/06:30am 26.8 E 14 16 1013.0 - 0.0 - - - - - - -
23/06:00am 26.8 E 15 17 1012.8 - 0.0 - - - - - - -
23/05:30am 27.3 E 15 18 1012.3 - 0.0 - - - - - - -
23/05:00am 26.9 E 14 16 1011.9 - 0.0 - - - - - - -
23/04:30am 26.9 E 15 17 1011.6 - 0.0 - - - - - - -
23/04:00am 26.9 ENE 15 18 1011.4 - 0.0 - - - - - - -
23/03:30am 27.1 E 14 16 1011.8 - 0.0 - - - - - - -
23/03:00am 27.0 E 15 17 1012.1 - 0.0 - - - - - - -
23/02:30am 26.9 E 14 17 1012.4 - 0.0 - - - - - - -
23/02:00am 27.0 E 13 15 1012.5 - 0.0 - - - - - - -
23/01:30am 27.1 E 13 15 1012.8 - 0.0 - - - - - - -
23/01:00am 27.0 ENE 15 17 1013.1 - 0.0 - - - - - - -
23/12:30am 26.9 ENE 14 18 1013.2 - 0.0 - - - - - - -
23/12:00am 27.1 ENE 14 16 1013.4 - 0.0 - - - - - - -
 
Date/Time
CST
Temp

°C
Wind Pressure Rain
since 9am
mm
Weather Cloud Vis
km
Sea
Height
m
Swell
Dir
 
Speed
knots
Gust
knots
hPa Trend Height
m
Period
s
Dir
22/11:30pm 27.2 ENE 14 17 1013.6 - 0.0 - - - - - - -
22/11:00pm 27.4 ENE 14 17 1013.5 - 0.0 - - - - - - -
22/10:30pm 27.5 ENE 15 16 1013.4 - 0.0 - - - - - - -
22/10:00pm 27.7 ENE 14 16 1013.1 - 0.0 - - - - - - -
22/09:30pm 27.4 NE 12 15 1012.9 - 0.0 - - - - - - -
22/09:00pm 27.4 NE 12 15 1012.5 - 0.0 - - - - - - -
22/08:30pm 27.5 NE 14 17 1012.3 - 0.0 - - - - - - -
22/08:00pm 27.8 NE 15 17 1011.9 - 0.0 - - - - - - -
22/07:30pm 27.7 NE 16 19 1011.6 - 0.0 - - - - - - -
22/07:00pm 27.6 ENE 17 19 1011.2 - 0.0 - - - - - - -
22/06:30pm 27.7 ENE 17 20 1011.0 - 0.0 - - - - - - -
22/06:00pm 27.6 ENE 18 20 1010.8 - 0.0 - - - - - - -
22/05:30pm 28.1 ENE 17 20 1010.6 - 0.0 - - - - - - -
22/05:00pm 27.8 ENE 16 19 1010.4 - 0.0 - - - - - - -
22/04:30pm 28.2 ENE 15 18 1010.5 - 0.0 - - - - - - -
22/04:00pm 28.2 ENE 16 19 1010.6 - 0.0 - - - - - - -
22/03:30pm 28.6 E 16 19 1010.8 - 0.0 - - - - - - -
22/03:00pm 29.0 E 15 17 1011.2 - 0.0 - - - - - - -
22/02:30pm 28.9 E 13 15 1011.5 - 0.0 - - - - - - -
22/02:00pm 29.1 E 12 13 1011.8 - 0.0 - - - - - - -
22/01:30pm 28.9 E 14 15 1012.2 - 0.0 - - - - - - -
22/01:00pm 28.5 E 14 16 1012.8 - 0.0 - - - - - - -

Other Formats:

Comma delimited format used in spreadsheet applications
http://www.bom.gov.au/fwo/IDD60701/IDD60701.94135.axf

JavaScript Object Notation format (JSON) in row-major order
http://www.bom.gov.au/fwo/IDD60701/IDD60701.94135.json